sensor_id;sensor_type;location;lat;lon;timestamp;P1;durP1;ratioP1;P2;durP2;ratioP2
80392;SDS011;69719;45.544;10.218;2023-08-01T00:01:31;9.20;;;4.50;;
80392;SDS011;69719;45.544;10.218;2023-08-01T00:03:57;8.95;;;5.07;;
80392;SDS011;69719;45.544;10.218;2023-08-01T00:06:22;5.82;;;3.42;;
80392;SDS011;69719;45.544;10.218;2023-08-01T00:08:50;6.95;;;4.63;;
80392;SDS011;69719;45.544;10.218;2023-08-01T00:11:16;6.97;;;3.55;;
80392;SDS011;69719;45.544;10.218;2023-08-01T00:13:41;8.15;;;4.53;;
80392;SDS011;69719;45.544;10.218;2023-08-01T00:16:08;5.97;;;3.75;;
80392;SDS011;69719;45.544;10.218;2023-08-01T00:18:34;6.50;;;3.58;;
80392;SDS011;69719;45.544;10.218;2023-08-01T00:21:00;7.20;;;3.72;;
80392;SDS011;69719;45.544;10.218;2023-08-01T00:23:25;5.97;;;3.60;;
80392;SDS011;69719;45.544;10.218;2023-08-01T00:25:51;5.28;;;3.00;;
80392;SDS011;69719;45.544;10.218;2023-08-01T00:28:23;5.28;;;3.83;;
80392;SDS011;69719;45.544;10.218;2023-08-01T00:30:48;5.75;;;3.60;;
80392;SDS011;69719;45.544;10.218;2023-08-01T00:33:14;6.60;;;4.15;;
80392;SDS011;69719;45.544;10.218;2023-08-01T00:35:40;7.13;;;3.35;;
80392;SDS011;69719;45.544;10.218;2023-08-01T00:38:05;6.18;;;3.50;;
80392;SDS011;69719;45.544;10.218;2023-08-01T00:40:31;4.57;;;3.30;;
80392;SDS011;69719;45.544;10.218;2023-08-01T00:42:58;6.32;;;3.72;;
80392;SDS011;69719;45.544;10.218;2023-08-01T00:45:24;6.35;;;3.42;;
80392;SDS011;69719;45.544;10.218;2023-08-01T00:47:54;7.65;;;4.30;;
80392;SDS011;69719;45.544;10.218;2023-08-01T00:50:20;10.63;;;7.63;;
80392;SDS011;69719;45.544;10.218;2023-08-01T00:52:47;4.75;;;4.20;;
80392;SDS011;69719;45.544;10.218;2023-08-01T00:55:14;8.10;;;4.40;;
80392;SDS011;69719;45.544;10.218;2023-08-01T00:57:40;7.43;;;3.83;;
80392;SDS011;69719;45.544;10.218;2023-08-01T01:00:07;4.78;;;3.08;;
80392;SDS011;69719;45.544;10.218;2023-08-01T01:02:33;5.57;;;3.30;;
80392;SDS011;69719;45.544;10.218;2023-08-01T01:05:00;4.60;;;3.30;;
80392;SDS011;69719;45.544;10.218;2023-08-01T01:07:27;6.15;;;2.85;;
80392;SDS011;69719;45.544;10.218;2023-08-01T01:09:54;7.07;;;4.80;;
80392;SDS011;69719;45.544;10.218;2023-08-01T01:12:20;5.43;;;2.95;;
80392;SDS011;69719;45.544;10.218;2023-08-01T01:14:45;8.65;;;3.67;;
80392;SDS011;69719;45.544;10.218;2023-08-01T01:17:11;7.72;;;3.47;;
80392;SDS011;69719;45.544;10.218;2023-08-01T01:19:37;4.68;;;3.20;;
80392;SDS011;69719;45.544;10.218;2023-08-01T01:22:03;5.45;;;3.28;;
80392;SDS011;69719;45.544;10.218;2023-08-01T01:24:31;5.32;;;3.35;;
80392;SDS011;69719;45.544;10.218;2023-08-01T01:26:58;4.22;;;3.67;;
80392;SDS011;69719;45.544;10.218;2023-08-01T01:29:25;7.63;;;3.78;;
80392;SDS011;69719;45.544;10.218;2023-08-01T01:31:52;7.78;;;3.45;;
80392;SDS011;69719;45.544;10.218;2023-08-01T01:34:19;6.20;;;3.50;;
80392;SDS011;69719;45.544;10.218;2023-08-01T01:36:45;4.80;;;3.75;;
80392;SDS011;69719;45.544;10.218;2023-08-01T01:39:10;4.35;;;3.15;;
80392;SDS011;69719;45.544;10.218;2023-08-01T01:41:36;6.63;;;3.15;;
80392;SDS011;69719;45.544;10.218;2023-08-01T01:44:01;5.80;;;3.20;;
80392;SDS011;69719;45.544;10.218;2023-08-01T01:46:27;6.68;;;3.40;;
80392;SDS011;69719;45.544;10.218;2023-08-01T01:48:52;5.65;;;3.10;;
80392;SDS011;69719;45.544;10.218;2023-08-01T01:51:19;4.20;;;3.55;;
80392;SDS011;69719;45.544;10.218;2023-08-01T01:53:46;6.30;;;3.30;;
80392;SDS011;69719;45.544;10.218;2023-08-01T01:56:11;3.10;;;2.80;;
80392;SDS011;69719;45.544;10.218;2023-08-01T01:58:37;7.70;;;3.33;;
80392;SDS011;69719;45.544;10.218;2023-08-01T02:01:02;4.25;;;3.00;;
80392;SDS011;69719;45.544;10.218;2023-08-01T02:03:28;6.28;;;3.10;;
80392;SDS011;69719;45.544;10.218;2023-08-01T02:05:53;5.78;;;3.15;;
80392;SDS011;69719;45.544;10.218;2023-08-01T02:08:19;5.25;;;2.97;;
80392;SDS011;69719;45.544;10.218;2023-08-01T02:10:44;5.85;;;3.08;;
80392;SDS011;69719;45.544;10.218;2023-08-01T02:13:10;5.15;;;2.80;;
80392;SDS011;69719;45.544;10.218;2023-08-01T02:15:36;5.15;;;2.85;;
80392;SDS011;69719;45.544;10.218;2023-08-01T02:18:01;7.47;;;2.92;;
80392;SDS011;69719;45.544;10.218;2023-08-01T02:20:27;6.57;;;3.45;;
80392;SDS011;69719;45.544;10.218;2023-08-01T02:22:54;5.63;;;2.90;;
80392;SDS011;69719;45.544;10.218;2023-08-01T02:25:19;4.53;;;3.28;;
80392;SDS011;69719;45.544;10.218;2023-08-01T02:27:45;5.72;;;3.28;;
80392;SDS011;69719;45.544;10.218;2023-08-01T02:30:10;5.32;;;3.20;;
80392;SDS011;69719;45.544;10.218;2023-08-01T02:32:36;3.97;;;2.78;;
80392;SDS011;69719;45.544;10.218;2023-08-01T02:35:01;6.45;;;3.08;;
80392;SDS011;69719;45.544;10.218;2023-08-01T02:37:27;3.75;;;2.95;;
80392;SDS011;69719;45.544;10.218;2023-08-01T02:39:53;4.50;;;3.10;;
80392;SDS011;69719;45.544;10.218;2023-08-01T02:42:18;4.28;;;2.90;;
80392;SDS011;69719;45.544;10.218;2023-08-01T02:44:44;4.40;;;2.97;;
80392;SDS011;69719;45.544;10.218;2023-08-01T02:47:09;6.70;;;3.38;;
80392;SDS011;69719;45.544;10.218;2023-08-01T02:49:34;4.90;;;3.22;;
80392;SDS011;69719;45.544;10.218;2023-08-01T02:52:00;5.38;;;2.88;;
80392;SDS011;69719;45.544;10.218;2023-08-01T02:54:25;5.05;;;3.25;;
80392;SDS011;69719;45.544;10.218;2023-08-01T02:56:51;4.47;;;3.47;;
80392;SDS011;69719;45.544;10.218;2023-08-01T02:59:16;3.63;;;2.72;;
80392;SDS011;69719;45.544;10.218;2023-08-01T03:01:45;4.25;;;2.90;;
80392;SDS011;69719;45.544;10.218;2023-08-01T03:04:10;6.50;;;3.20;;
80392;SDS011;69719;45.544;10.218;2023-08-01T03:06:39;7.18;;;2.97;;
80392;SDS011;69719;45.544;10.218;2023-08-01T03:09:04;4.25;;;3.17;;
80392;SDS011;69719;45.544;10.218;2023-08-01T03:11:33;6.53;;;3.63;;
80392;SDS011;69719;45.544;10.218;2023-08-01T03:14:00;9.07;;;3.80;;
80392;SDS011;69719;45.544;10.218;2023-08-01T03:16:26;5.35;;;3.45;;
80392;SDS011;69719;45.544;10.218;2023-08-01T03:18:51;8.27;;;3.63;;
80392;SDS011;69719;45.544;10.218;2023-08-01T03:21:17;9.82;;;3.75;;
80392;SDS011;69719;45.544;10.218;2023-08-01T03:23:42;8.43;;;2.70;;
80392;SDS011;69719;45.544;10.218;2023-08-01T03:26:08;5.50;;;2.70;;
80392;SDS011;69719;45.544;10.218;2023-08-01T03:28:34;7.95;;;2.80;;
80392;SDS011;69719;45.544;10.218;2023-08-01T03:30:59;4.07;;;2.40;;
80392;SDS011;69719;45.544;10.218;2023-08-01T03:33:25;5.55;;;2.83;;
80392;SDS011;69719;45.544;10.218;2023-08-01T03:35:50;6.35;;;2.45;;
80392;SDS011;69719;45.544;10.218;2023-08-01T03:38:16;9.80;;;3.88;;
80392;SDS011;69719;45.544;10.218;2023-08-01T03:40:41;8.73;;;3.30;;
80392;SDS011;69719;45.544;10.218;2023-08-01T03:43:07;7.45;;;3.15;;
80392;SDS011;69719;45.544;10.218;2023-08-01T03:45:34;9.85;;;3.08;;
80392;SDS011;69719;45.544;10.218;2023-08-01T03:48:00;9.05;;;3.08;;
80392;SDS011;69719;45.544;10.218;2023-08-01T03:50:26;7.10;;;3.13;;
80392;SDS011;69719;45.544;10.218;2023-08-01T03:52:51;5.53;;;3.30;;
80392;SDS011;69719;45.544;10.218;2023-08-01T03:55:17;8.32;;;3.47;;
80392;SDS011;69719;45.544;10.218;2023-08-01T03:57:43;5.63;;;3.67;;
80392;SDS011;69719;45.544;10.218;2023-08-01T04:00:08;13.82;;;3.95;;
80392;SDS011;69719;45.544;10.218;2023-08-01T04:02:43;7.25;;;4.70;;
80392;SDS011;69719;45.544;10.218;2023-08-01T04:05:09;5.80;;;3.55;;
80392;SDS011;69719;45.544;10.218;2023-08-01T04:07:35;3.10;;;2.53;;
80392;SDS011;69719;45.544;10.218;2023-08-01T04:10:02;5.70;;;2.40;;
80392;SDS011;69719;45.544;10.218;2023-08-01T04:12:28;4.45;;;2.30;;
80392;SDS011;69719;45.544;10.218;2023-08-01T04:14:54;3.17;;;2.75;;
80392;SDS011;69719;45.544;10.218;2023-08-01T04:17:20;5.85;;;2.17;;
80392;SDS011;69719;45.544;10.218;2023-08-01T04:19:45;2.90;;;1.90;;
80392;SDS011;69719;45.544;10.218;2023-08-01T04:22:11;6.88;;;2.05;;
80392;SDS011;69719;45.544;10.218;2023-08-01T04:24:36;4.75;;;2.53;;
80392;SDS011;69719;45.544;10.218;2023-08-01T04:27:02;2.63;;;2.10;;
80392;SDS011;69719;45.544;10.218;2023-08-01T04:29:28;2.97;;;2.10;;
80392;SDS011;69719;45.544;10.218;2023-08-01T04:31:53;3.45;;;2.30;;
80392;SDS011;69719;45.544;10.218;2023-08-01T04:34:19;4.53;;;2.33;;
80392;SDS011;69719;45.544;10.218;2023-08-01T04:36:44;5.20;;;2.10;;
80392;SDS011;69719;45.544;10.218;2023-08-01T04:39:10;3.78;;;2.30;;
80392;SDS011;69719;45.544;10.218;2023-08-01T04:41:35;4.45;;;2.15;;
80392;SDS011;69719;45.544;10.218;2023-08-01T04:44:01;7.45;;;2.58;;
80392;SDS011;69719;45.544;10.218;2023-08-01T04:46:26;4.47;;;2.47;;
80392;SDS011;69719;45.544;10.218;2023-08-01T04:48:52;5.70;;;2.38;;
80392;SDS011;69719;45.544;10.218;2023-08-01T04:51:17;3.78;;;2.20;;
80392;SDS011;69719;45.544;10.218;2023-08-01T04:53:43;3.30;;;2.60;;
80392;SDS011;69719;45.544;10.218;2023-08-01T04:56:08;3.88;;;2.35;;
80392;SDS011;69719;45.544;10.218;2023-08-01T04:58:33;3.53;;;2.42;;
80392;SDS011;69719;45.544;10.218;2023-08-01T05:00:59;3.83;;;2.20;;
80392;SDS011;69719;45.544;10.218;2023-08-01T05:03:24;3.28;;;2.03;;
80392;SDS011;69719;45.544;10.218;2023-08-01T05:05:50;3.40;;;2.40;;
80392;SDS011;69719;45.544;10.218;2023-08-01T05:08:15;4.90;;;2.45;;
80392;SDS011;69719;45.544;10.218;2023-08-01T05:10:41;3.45;;;2.00;;
80392;SDS011;69719;45.544;10.218;2023-08-01T05:13:06;6.95;;;2.53;;
80392;SDS011;69719;45.544;10.218;2023-08-01T05:15:32;3.75;;;2.17;;
80392;SDS011;69719;45.544;10.218;2023-08-01T05:17:57;4.75;;;2.30;;
80392;SDS011;69719;45.544;10.218;2023-08-01T05:20:23;4.13;;;2.53;;
80392;SDS011;69719;45.544;10.218;2023-08-01T05:22:49;4.90;;;2.28;;
80392;SDS011;69719;45.544;10.218;2023-08-01T05:25:14;4.05;;;2.42;;
80392;SDS011;69719;45.544;10.218;2023-08-01T05:27:40;5.30;;;2.35;;
80392;SDS011;69719;45.544;10.218;2023-08-01T05:30:05;3.22;;;2.33;;
80392;SDS011;69719;45.544;10.218;2023-08-01T05:32:31;6.65;;;2.47;;
80392;SDS011;69719;45.544;10.218;2023-08-01T05:34:57;4.93;;;2.38;;
80392;SDS011;69719;45.544;10.218;2023-08-01T05:37:22;5.45;;;2.63;;
80392;SDS011;69719;45.544;10.218;2023-08-01T05:39:48;4.93;;;2.80;;
80392;SDS011;69719;45.544;10.218;2023-08-01T05:42:13;4.20;;;2.40;;
80392;SDS011;69719;45.544;10.218;2023-08-01T05:44:39;3.72;;;2.50;;
80392;SDS011;69719;45.544;10.218;2023-08-01T05:47:04;5.78;;;2.60;;
80392;SDS011;69719;45.544;10.218;2023-08-01T05:49:30;3.70;;;2.40;;
80392;SDS011;69719;45.544;10.218;2023-08-01T05:51:55;3.60;;;2.25;;
80392;SDS011;69719;45.544;10.218;2023-08-01T05:54:21;3.75;;;2.53;;
80392;SDS011;69719;45.544;10.218;2023-08-01T05:56:47;8.07;;;2.50;;
80392;SDS011;69719;45.544;10.218;2023-08-01T05:59:13;4.13;;;2.60;;
80392;SDS011;69719;45.544;10.218;2023-08-01T06:01:38;3.25;;;2.60;;
80392;SDS011;69719;45.544;10.218;2023-08-01T06:04:04;4.88;;;2.88;;
80392;SDS011;69719;45.544;10.218;2023-08-01T06:06:29;3.03;;;2.33;;
80392;SDS011;69719;45.544;10.218;2023-08-01T06:08:55;5.97;;;2.90;;
80392;SDS011;69719;45.544;10.218;2023-08-01T06:11:21;4.55;;;2.50;;
80392;SDS011;69719;45.544;10.218;2023-08-01T06:13:46;2.75;;;2.53;;
80392;SDS011;69719;45.544;10.218;2023-08-01T06:16:12;13.50;;;3.28;;
80392;SDS011;69719;45.544;10.218;2023-08-01T06:18:37;5.60;;;3.05;;
80392;SDS011;69719;45.544;10.218;2023-08-01T06:21:03;3.70;;;2.50;;
80392;SDS011;69719;45.544;10.218;2023-08-01T06:23:28;6.22;;;2.78;;
80392;SDS011;69719;45.544;10.218;2023-08-01T06:25:54;3.67;;;2.85;;
80392;SDS011;69719;45.544;10.218;2023-08-01T06:28:19;7.68;;;3.00;;
80392;SDS011;69719;45.544;10.218;2023-08-01T06:30:45;4.55;;;3.40;;
80392;SDS011;69719;45.544;10.218;2023-08-01T06:33:11;5.15;;;3.22;;
80392;SDS011;69719;45.544;10.218;2023-08-01T06:35:36;9.13;;;2.90;;
80392;SDS011;69719;45.544;10.218;2023-08-01T06:38:02;7.30;;;2.95;;
80392;SDS011;69719;45.544;10.218;2023-08-01T06:40:27;9.50;;;3.35;;
80392;SDS011;69719;45.544;10.218;2023-08-01T06:42:53;5.82;;;3.22;;
80392;SDS011;69719;45.544;10.218;2023-08-01T06:45:18;4.65;;;3.47;;
80392;SDS011;69719;45.544;10.218;2023-08-01T06:47:44;16.30;;;4.70;;
80392;SDS011;69719;45.544;10.218;2023-08-01T06:50:09;7.05;;;3.08;;
80392;SDS011;69719;45.544;10.218;2023-08-01T06:52:46;5.72;;;3.50;;
80392;SDS011;69719;45.544;10.218;2023-08-01T06:55:12;8.43;;;4.15;;
80392;SDS011;69719;45.544;10.218;2023-08-01T06:57:38;7.55;;;3.00;;
80392;SDS011;69719;45.544;10.218;2023-08-01T07:00:04;4.22;;;2.85;;
80392;SDS011;69719;45.544;10.218;2023-08-01T07:05:47;15.60;;;9.55;;
80392;SDS011;69719;45.544;10.218;2023-08-01T07:19:11;6.78;;;3.35;;
80392;SDS011;69719;45.544;10.218;2023-08-01T07:21:57;9.65;;;4.13;;
80392;SDS011;69719;45.544;10.218;2023-08-01T07:24:23;7.60;;;3.92;;
80392;SDS011;69719;45.544;10.218;2023-08-01T07:26:48;8.30;;;3.22;;
80392;SDS011;69719;45.544;10.218;2023-08-01T07:29:14;17.70;;;4.00;;
80392;SDS011;69719;45.544;10.218;2023-08-01T07:31:41;11.95;;;3.72;;
80392;SDS011;69719;45.544;10.218;2023-08-01T07:34:07;9.02;;;3.83;;
80392;SDS011;69719;45.544;10.218;2023-08-01T07:36:32;9.80;;;3.78;;
80392;SDS011;69719;45.544;10.218;2023-08-01T07:38:58;5.97;;;3.25;;
80392;SDS011;69719;45.544;10.218;2023-08-01T07:41:23;5.32;;;2.45;;
80392;SDS011;69719;45.544;10.218;2023-08-01T07:43:49;12.70;;;3.10;;
80392;SDS011;69719;45.544;10.218;2023-08-01T07:46:14;14.80;;;4.47;;
80392;SDS011;69719;45.544;10.218;2023-08-01T07:48:40;10.93;;;3.55;;
80392;SDS011;69719;45.544;10.218;2023-08-01T07:51:05;12.25;;;4.22;;
80392;SDS011;69719;45.544;10.218;2023-08-01T07:53:33;8.07;;;3.13;;
80392;SDS011;69719;45.544;10.218;2023-08-01T07:55:59;7.00;;;2.90;;
80392;SDS011;69719;45.544;10.218;2023-08-01T07:58:27;7.13;;;2.97;;
80392;SDS011;69719;45.544;10.218;2023-08-01T08:00:53;3.75;;;2.45;;
80392;SDS011;69719;45.544;10.218;2023-08-01T08:03:19;5.95;;;2.90;;
80392;SDS011;69719;45.544;10.218;2023-08-01T08:05:47;4.22;;;2.63;;
80392;SDS011;69719;45.544;10.218;2023-08-01T08:18:19;7.38;;;2.95;;
80392;SDS011;69719;45.544;10.218;2023-08-01T08:20:45;7.70;;;3.33;;
80392;SDS011;69719;45.544;10.218;2023-08-01T08:23:11;6.13;;;2.65;;
80392;SDS011;69719;45.544;10.218;2023-08-01T08:25:40;6.45;;;2.95;;
80392;SDS011;69719;45.544;10.218;2023-08-01T08:28:07;95.55;;;15.98;;
80392;SDS011;69719;45.544;10.218;2023-08-01T08:30:33;7.10;;;2.95;;
80392;SDS011;69719;45.544;10.218;2023-08-01T08:33:00;4.82;;;3.20;;
80392;SDS011;69719;45.544;10.218;2023-08-01T08:35:29;8.65;;;3.15;;
80392;SDS011;69719;45.544;10.218;2023-08-01T08:37:55;8.32;;;2.90;;
80392;SDS011;69719;45.544;10.218;2023-08-01T08:40:22;6.05;;;2.90;;
80392;SDS011;69719;45.544;10.218;2023-08-01T08:42:47;3.80;;;2.33;;
80392;SDS011;69719;45.544;10.218;2023-08-01T08:45:15;6.47;;;2.65;;
80392;SDS011;69719;45.544;10.218;2023-08-01T08:47:44;6.47;;;2.80;;
80392;SDS011;69719;45.544;10.218;2023-08-01T08:50:13;5.30;;;3.10;;
80392;SDS011;69719;45.544;10.218;2023-08-01T08:52:39;7.45;;;3.00;;
80392;SDS011;69719;45.544;10.218;2023-08-01T08:55:05;9.45;;;3.35;;
80392;SDS011;69719;45.544;10.218;2023-08-01T08:57:32;7.55;;;2.88;;
80392;SDS011;69719;45.544;10.218;2023-08-01T08:59:59;9.85;;;3.17;;
80392;SDS011;69719;45.544;10.218;2023-08-01T09:02:25;7.65;;;2.63;;
80392;SDS011;69719;45.544;10.218;2023-08-01T09:04:52;4.88;;;3.10;;
80392;SDS011;69719;45.544;10.218;2023-08-01T09:07:17;4.82;;;2.80;;
80392;SDS011;69719;45.544;10.218;2023-08-01T09:09:48;7.10;;;3.38;;
80392;SDS011;69719;45.544;10.218;2023-08-01T09:12:14;10.63;;;3.20;;
80392;SDS011;69719;45.544;10.218;2023-08-01T09:14:39;10.65;;;3.55;;
80392;SDS011;69719;45.544;10.218;2023-08-01T09:17:09;5.03;;;3.25;;
80392;SDS011;69719;45.544;10.218;2023-08-01T09:19:34;5.90;;;3.63;;
80392;SDS011;69719;45.544;10.218;2023-08-01T09:22:01;10.95;;;3.28;;
80392;SDS011;69719;45.544;10.218;2023-08-01T09:24:27;5.93;;;2.88;;
80392;SDS011;69719;45.544;10.218;2023-08-01T09:26:52;6.57;;;2.88;;
80392;SDS011;69719;45.544;10.218;2023-08-01T09:29:29;6.93;;;3.40;;
80392;SDS011;69719;45.544;10.218;2023-08-01T09:31:56;6.53;;;3.28;;
80392;SDS011;69719;45.544;10.218;2023-08-01T09:34:23;6.03;;;3.35;;
80392;SDS011;69719;45.544;10.218;2023-08-01T09:36:51;5.20;;;2.70;;
80392;SDS011;69719;45.544;10.218;2023-08-01T09:39:22;5.72;;;2.85;;
80392;SDS011;69719;45.544;10.218;2023-08-01T09:41:57;7.40;;;3.45;;
80392;SDS011;69719;45.544;10.218;2023-08-01T09:44:27;4.47;;;3.00;;
80392;SDS011;69719;45.544;10.218;2023-08-01T09:46:57;6.60;;;3.33;;
80392;SDS011;69719;45.544;10.218;2023-08-01T09:49:27;5.90;;;3.50;;
80392;SDS011;69719;45.544;10.218;2023-08-01T09:51:54;6.18;;;3.65;;
80392;SDS011;69719;45.544;10.218;2023-08-01T09:54:20;8.73;;;3.65;;
80392;SDS011;69719;45.544;10.218;2023-08-01T09:56:47;6.63;;;3.40;;
80392;SDS011;69719;45.544;10.218;2023-08-01T09:59:18;7.00;;;3.20;;
80392;SDS011;69719;45.544;10.218;2023-08-01T10:01:49;9.60;;;4.18;;
80392;SDS011;69719;45.544;10.218;2023-08-01T10:04:16;5.22;;;3.58;;
80392;SDS011;69719;45.544;10.218;2023-08-01T10:06:49;5.78;;;4.05;;
80392;SDS011;69719;45.544;10.218;2023-08-01T10:09:22;13.05;;;3.92;;
80392;SDS011;69719;45.544;10.218;2023-08-01T10:11:49;13.45;;;4.85;;
80392;SDS011;69719;45.544;10.218;2023-08-01T10:14:19;8.07;;;4.80;;
80392;SDS011;69719;45.544;10.218;2023-08-01T10:16:45;12.05;;;4.82;;
80392;SDS011;69719;45.544;10.218;2023-08-01T10:19:12;6.82;;;4.03;;
80392;SDS011;69719;45.544;10.218;2023-08-01T10:21:39;14.82;;;4.88;;
80392;SDS011;69719;45.544;10.218;2023-08-01T10:24:07;9.80;;;4.03;;
80392;SDS011;69719;45.544;10.218;2023-08-01T10:26:33;7.80;;;4.07;;
80392;SDS011;69719;45.544;10.218;2023-08-01T10:29:00;6.18;;;3.92;;
80392;SDS011;69719;45.544;10.218;2023-08-01T10:31:27;11.18;;;4.55;;
80392;SDS011;69719;45.544;10.218;2023-08-01T10:34:02;5.90;;;3.47;;
80392;SDS011;69719;45.544;10.218;2023-08-01T10:36:29;8.13;;;4.43;;
80392;SDS011;69719;45.544;10.218;2023-08-01T10:38:57;8.88;;;4.63;;
80392;SDS011;69719;45.544;10.218;2023-08-01T10:41:27;10.65;;;4.28;;
80392;SDS011;69719;45.544;10.218;2023-08-01T10:44:11;6.93;;;4.18;;
80392;SDS011;69719;45.544;10.218;2023-08-01T10:46:50;11.80;;;4.93;;
80392;SDS011;69719;45.544;10.218;2023-08-01T10:49:16;10.85;;;4.53;;
80392;SDS011;69719;45.544;10.218;2023-08-01T10:51:42;9.48;;;4.15;;
80392;SDS011;69719;45.544;10.218;2023-08-01T10:54:21;9.57;;;4.57;;
80392;SDS011;69719;45.544;10.218;2023-08-01T10:56:48;10.38;;;4.40;;
80392;SDS011;69719;45.544;10.218;2023-08-01T10:59:15;9.73;;;4.93;;
80392;SDS011;69719;45.544;10.218;2023-08-01T11:02:03;9.65;;;4.70;;
80392;SDS011;69719;45.544;10.218;2023-08-01T11:04:27;6.95;;;4.25;;
80392;SDS011;69719;45.544;10.218;2023-08-01T11:06:54;8.00;;;4.70;;
80392;SDS011;69719;45.544;10.218;2023-08-01T11:09:26;10.95;;;4.28;;
80392;SDS011;69719;45.544;10.218;2023-08-01T11:11:53;14.48;;;5.68;;
80392;SDS011;69719;45.544;10.218;2023-08-01T11:14:21;10.60;;;5.22;;
80392;SDS011;69719;45.544;10.218;2023-08-01T11:16:56;8.48;;;4.43;;
80392;SDS011;69719;45.544;10.218;2023-08-01T11:19:23;11.07;;;4.63;;
80392;SDS011;69719;45.544;10.218;2023-08-01T11:21:51;13.00;;;4.00;;
80392;SDS011;69719;45.544;10.218;2023-08-01T11:24:17;10.35;;;4.20;;
80392;SDS011;69719;45.544;10.218;2023-08-01T11:26:45;34.47;;;5.57;;
80392;SDS011;69719;45.544;10.218;2023-08-01T11:29:12;7.95;;;4.88;;
80392;SDS011;69719;45.544;10.218;2023-08-01T11:31:39;15.93;;;4.88;;
80392;SDS011;69719;45.544;10.218;2023-08-01T11:34:08;8.05;;;4.38;;
80392;SDS011;69719;45.544;10.218;2023-08-01T11:36:35;9.48;;;4.28;;
80392;SDS011;69719;45.544;10.218;2023-08-01T11:39:01;8.73;;;3.78;;
80392;SDS011;69719;45.544;10.218;2023-08-01T11:41:27;21.17;;;11.93;;
80392;SDS011;69719;45.544;10.218;2023-08-01T11:43:53;10.27;;;4.80;;
80392;SDS011;69719;45.544;10.218;2023-08-01T11:46:20;6.65;;;4.20;;
80392;SDS011;69719;45.544;10.218;2023-08-01T11:48:47;7.18;;;4.03;;
80392;SDS011;69719;45.544;10.218;2023-08-01T11:51:12;6.88;;;3.85;;
80392;SDS011;69719;45.544;10.218;2023-08-01T11:53:38;7.57;;;3.88;;
80392;SDS011;69719;45.544;10.218;2023-08-01T11:56:04;7.93;;;4.20;;
80392;SDS011;69719;45.544;10.218;2023-08-01T11:58:34;7.30;;;3.92;;
80392;SDS011;69719;45.544;10.218;2023-08-01T12:01:05;11.10;;;4.07;;
80392;SDS011;69719;45.544;10.218;2023-08-01T12:03:41;8.75;;;4.25;;
80392;SDS011;69719;45.544;10.218;2023-08-01T12:06:10;7.55;;;4.30;;
80392;SDS011;69719;45.544;10.218;2023-08-01T12:08:37;18.42;;;5.70;;
80392;SDS011;69719;45.544;10.218;2023-08-01T12:11:03;7.60;;;3.83;;
80392;SDS011;69719;45.544;10.218;2023-08-01T12:13:28;7.75;;;4.07;;
80392;SDS011;69719;45.544;10.218;2023-08-01T12:15:56;10.23;;;4.10;;
80392;SDS011;69719;45.544;10.218;2023-08-01T12:21:08;9.77;;;5.13;;
80392;SDS011;69719;45.544;10.218;2023-08-01T12:23:35;12.05;;;5.90;;
80392;SDS011;69719;45.544;10.218;2023-08-01T12:26:01;11.23;;;4.57;;
80392;SDS011;69719;45.544;10.218;2023-08-01T12:28:26;7.32;;;4.45;;
80392;SDS011;69719;45.544;10.218;2023-08-01T12:30:52;10.57;;;5.40;;
80392;SDS011;69719;45.544;10.218;2023-08-01T12:33:18;7.40;;;4.72;;
80392;SDS011;69719;45.544;10.218;2023-08-01T12:35:44;8.80;;;5.30;;
80392;SDS011;69719;45.544;10.218;2023-08-01T12:38:09;11.75;;;5.50;;
80392;SDS011;69719;45.544;10.218;2023-08-01T12:40:35;9.65;;;4.88;;
80392;SDS011;69719;45.544;10.218;2023-08-01T12:43:00;10.90;;;4.93;;
80392;SDS011;69719;45.544;10.218;2023-08-01T12:45:26;19.60;;;5.55;;
80392;SDS011;69719;45.544;10.218;2023-08-01T12:47:51;32.85;;;9.60;;
80392;SDS011;69719;45.544;10.218;2023-08-01T12:50:17;18.83;;;6.32;;
80392;SDS011;69719;45.544;10.218;2023-08-01T12:52:45;12.02;;;5.00;;
80392;SDS011;69719;45.544;10.218;2023-08-01T12:55:11;12.82;;;5.55;;
80392;SDS011;69719;45.544;10.218;2023-08-01T12:57:36;27.00;;;7.20;;
80392;SDS011;69719;45.544;10.218;2023-08-01T13:00:02;12.60;;;6.05;;
80392;SDS011;69719;45.544;10.218;2023-08-01T13:02:28;15.05;;;7.38;;
80392;SDS011;69719;45.544;10.218;2023-08-01T13:04:54;12.20;;;6.65;;
80392;SDS011;69719;45.544;10.218;2023-08-01T13:07:19;16.70;;;7.97;;
80392;SDS011;69719;45.544;10.218;2023-08-01T13:09:45;15.25;;;6.38;;
80392;SDS011;69719;45.544;10.218;2023-08-01T13:12:10;12.80;;;6.72;;
80392;SDS011;69719;45.544;10.218;2023-08-01T13:14:36;13.32;;;6.82;;
80392;SDS011;69719;45.544;10.218;2023-08-01T13:17:01;13.45;;;6.65;;
80392;SDS011;69719;45.544;10.218;2023-08-01T13:19:27;11.95;;;6.22;;
80392;SDS011;69719;45.544;10.218;2023-08-01T13:21:53;12.25;;;6.53;;
80392;SDS011;69719;45.544;10.218;2023-08-01T13:24:18;11.82;;;5.75;;
80392;SDS011;69719;45.544;10.218;2023-08-01T13:26:44;14.32;;;5.20;;
80392;SDS011;69719;45.544;10.218;2023-08-01T13:29:10;12.40;;;6.45;;
80392;SDS011;69719;45.544;10.218;2023-08-01T13:31:35;26.90;;;8.20;;
80392;SDS011;69719;45.544;10.218;2023-08-01T13:34:01;14.30;;;6.95;;
80392;SDS011;69719;45.544;10.218;2023-08-01T13:36:26;14.88;;;6.47;;
80392;SDS011;69719;45.544;10.218;2023-08-01T13:38:52;11.27;;;6.70;;
80392;SDS011;69719;45.544;10.218;2023-08-01T13:41:17;33.47;;;8.93;;
80392;SDS011;69719;45.544;10.218;2023-08-01T13:43:43;17.50;;;5.93;;
80392;SDS011;69719;45.544;10.218;2023-08-01T13:46:12;9.27;;;5.15;;
80392;SDS011;69719;45.544;10.218;2023-08-01T13:48:42;15.00;;;6.32;;
80392;SDS011;69719;45.544;10.218;2023-08-01T13:51:08;9.70;;;6.18;;
80392;SDS011;69719;45.544;10.218;2023-08-01T13:53:35;13.63;;;6.47;;
80392;SDS011;69719;45.544;10.218;2023-08-01T13:56:06;18.85;;;8.90;;
80392;SDS011;69719;45.544;10.218;2023-08-01T13:58:32;15.95;;;6.47;;
80392;SDS011;69719;45.544;10.218;2023-08-01T14:01:01;17.67;;;5.95;;
80392;SDS011;69719;45.544;10.218;2023-08-01T14:03:32;17.95;;;8.57;;
80392;SDS011;69719;45.544;10.218;2023-08-01T14:06:08;17.60;;;6.03;;
80392;SDS011;69719;45.544;10.218;2023-08-01T14:08:35;14.95;;;6.05;;
80392;SDS011;69719;45.544;10.218;2023-08-01T14:11:04;12.70;;;5.50;;
80392;SDS011;69719;45.544;10.218;2023-08-01T14:13:31;21.02;;;5.82;;
80392;SDS011;69719;45.544;10.218;2023-08-01T14:15:57;13.32;;;7.40;;
80392;SDS011;69719;45.544;10.218;2023-08-01T14:18:23;12.48;;;6.05;;
80392;SDS011;69719;45.544;10.218;2023-08-01T14:20:48;16.77;;;9.10;;
80392;SDS011;69719;45.544;10.218;2023-08-01T14:23:14;17.90;;;8.18;;
80392;SDS011;69719;45.544;10.218;2023-08-01T14:25:43;13.23;;;5.60;;
80392;SDS011;69719;45.544;10.218;2023-08-01T14:28:08;24.45;;;9.43;;
80392;SDS011;69719;45.544;10.218;2023-08-01T14:30:34;21.48;;;9.48;;
80392;SDS011;69719;45.544;10.218;2023-08-01T14:33:00;19.88;;;9.68;;
80392;SDS011;69719;45.544;10.218;2023-08-01T14:35:30;17.50;;;6.97;;
80392;SDS011;69719;45.544;10.218;2023-08-01T14:37:56;13.65;;;5.82;;
80392;SDS011;69719;45.544;10.218;2023-08-01T14:40:22;16.25;;;6.78;;
80392;SDS011;69719;45.544;10.218;2023-08-01T14:42:48;13.40;;;6.10;;
80392;SDS011;69719;45.544;10.218;2023-08-01T14:45:13;17.45;;;7.38;;
80392;SDS011;69719;45.544;10.218;2023-08-01T14:53:00;14.90;;;7.43;;
80392;SDS011;69719;45.544;10.218;2023-08-01T14:55:28;14.68;;;6.13;;
80392;SDS011;69719;45.544;10.218;2023-08-01T14:57:54;13.98;;;6.00;;
80392;SDS011;69719;45.544;10.218;2023-08-01T15:00:20;13.55;;;5.10;;